createdAt,value
2022-12-12T00:01:33.305Z,1.10
2022-12-12T00:04:02.129Z,1.60
2022-12-12T00:06:30.686Z,1.70
2022-12-12T00:08:59.676Z,1.70
2022-12-12T00:11:28.516Z,1.50
2022-12-12T00:13:57.867Z,1.40
2022-12-12T00:16:26.267Z,1.20
2022-12-12T00:18:54.619Z,1.70
2022-12-12T00:21:26.145Z,1.50
2022-12-12T00:23:55.635Z,1.30
2022-12-12T00:26:29.356Z,1.20
2022-12-12T00:28:59.578Z,1.40
2022-12-12T00:31:29.026Z,1.20
2022-12-12T00:33:57.496Z,1.80
2022-12-12T00:36:30.259Z,1.30
2022-12-12T00:38:59.560Z,1.70
2022-12-12T00:41:28.377Z,1.40
2022-12-12T00:43:56.666Z,1.10
2022-12-12T00:46:26.240Z,1.60
2022-12-12T00:48:57.081Z,1.60
2022-12-12T00:51:27.701Z,1.50
2022-12-12T00:53:58.038Z,1.20
2022-12-12T00:56:28.064Z,1.50
2022-12-12T00:58:56.764Z,1.30
2022-12-12T01:01:28.138Z,1.50
2022-12-12T01:03:57.080Z,1.80
2022-12-12T01:06:26.455Z,1.80
2022-12-12T01:08:54.796Z,1.80
2022-12-12T01:11:23.857Z,1.50
2022-12-12T01:13:54.007Z,1.30
2022-12-12T01:16:24.028Z,1.60
2022-12-12T01:18:52.804Z,1.40
2022-12-12T01:21:21.766Z,1.40
2022-12-12T01:23:50.514Z,1.30
2022-12-12T01:26:22.706Z,1.40
2022-12-12T01:31:21.279Z,1.00
2022-12-12T01:33:50.095Z,1.50
2022-12-12T01:36:21.150Z,1.60
2022-12-12T01:38:51.589Z,1.60
2022-12-12T01:41:21.098Z,1.40
2022-12-12T01:43:50.341Z,1.50
2022-12-12T01:46:33.457Z,1.60
2022-12-12T01:49:25.403Z,1.30
2022-12-12T01:52:01.257Z,1.60
2022-12-12T01:54:34.223Z,1.50
2022-12-12T01:57:08.588Z,1.50
2022-12-12T01:59:39.628Z,1.40
2022-12-12T02:02:09.485Z,1.40
2022-12-12T02:04:38.523Z,1.40
2022-12-12T02:07:06.842Z,1.40
2022-12-12T02:09:37.163Z,1.50
2022-12-12T02:12:05.973Z,1.50
2022-12-12T02:14:39.383Z,1.50
2022-12-12T02:17:39.036Z,1.60
2022-12-12T02:20:34.034Z,1.50
2022-12-12T02:23:26.337Z,1.40
2022-12-12T02:26:18.913Z,1.40
2022-12-12T02:28:47.236Z,1.30
2022-12-12T02:31:24.547Z,1.70
2022-12-12T02:34:03.205Z,1.70
2022-12-12T02:36:50.176Z,1.20
2022-12-12T02:39:27.926Z,1.30
2022-12-12T02:42:02.951Z,1.40
2022-12-12T02:44:41.575Z,1.70
2022-12-12T02:47:15.687Z,1.20
2022-12-12T02:49:55.968Z,1.20
2022-12-12T02:52:24.339Z,1.30
2022-12-12T02:54:52.605Z,1.30
2022-12-12T02:57:25.896Z,1.10
2022-12-12T03:00:15.875Z,1.30
2022-12-12T03:03:39.245Z,1.10
2022-12-12T03:09:13.446Z,1.20
2022-12-12T03:12:14.825Z,1.20
2022-12-12T03:14:49.037Z,2.00
2022-12-12T03:17:44.254Z,1.40
2022-12-12T03:20:24.259Z,0.90
2022-12-12T03:23:02.329Z,1.20
2022-12-12T03:25:43.911Z,1.50
2022-12-12T03:28:21.766Z,1.40
2022-12-12T03:30:57.773Z,1.20
2022-12-12T03:33:33.710Z,1.20
2022-12-12T03:36:34.796Z,1.10
2022-12-12T03:39:10.164Z,1.00
2022-12-12T03:41:43.806Z,1.20
2022-12-12T03:44:19.540Z,1.10
2022-12-12T03:47:02.292Z,1.10
2022-12-12T03:49:40.676Z,1.10
2022-12-12T03:52:19.550Z,1.40
2022-12-12T03:55:07.209Z,1.40
2022-12-12T03:57:45.332Z,1.50
2022-12-12T04:00:15.503Z,0.90
2022-12-12T04:03:03.421Z,2.10
2022-12-12T04:06:35.712Z,1.60
2022-12-12T04:09:33.202Z,1.40
2022-12-12T04:12:32.393Z,1.20
2022-12-12T04:15:23.419Z,1.40
2022-12-12T04:18:38.586Z,1.20
2022-12-12T04:21:52.710Z,1.40
2022-12-12T04:24:32.983Z,1.30
2022-12-12T04:27:01.259Z,1.50
2022-12-12T04:29:39.607Z,1.60
2022-12-12T04:32:25.565Z,2.00
2022-12-12T04:35:00.309Z,1.50
2022-12-12T04:37:35.955Z,1.40
2022-12-12T04:40:09.182Z,2.20
2022-12-12T04:42:46.182Z,1.60
2022-12-12T04:45:20.476Z,2.50
2022-12-12T04:47:52.752Z,1.60
2022-12-12T04:50:25.036Z,1.80
2022-12-12T04:52:57.013Z,1.60
2022-12-12T04:55:38.342Z,1.70
2022-12-12T04:58:08.115Z,1.60
2022-12-12T05:00:53.061Z,2.40
2022-12-12T05:03:33.925Z,2.00
2022-12-12T05:06:10.651Z,1.70
2022-12-12T05:08:43.688Z,1.60
2022-12-12T05:11:12.686Z,2.60
2022-12-12T05:13:43.171Z,1.80
2022-12-12T05:16:22.939Z,1.90
2022-12-12T05:18:51.579Z,2.00
2022-12-12T05:21:20.546Z,1.60
2022-12-12T05:23:48.836Z,1.50
2022-12-12T05:26:26.706Z,1.50
2022-12-12T05:28:56.151Z,1.60
2022-12-12T05:31:24.896Z,1.50
2022-12-12T05:33:53.350Z,1.40
2022-12-12T05:36:22.405Z,1.60
2022-12-12T05:38:50.709Z,1.30
2022-12-12T05:41:18.949Z,1.10
2022-12-12T05:43:47.495Z,1.10
2022-12-12T05:46:15.834Z,1.20
2022-12-12T05:48:44.729Z,1.10
2022-12-12T05:51:13.155Z,1.30
2022-12-12T05:53:43.070Z,1.40
2022-12-12T05:56:12.958Z,2.10
2022-12-12T05:58:41.409Z,1.60
2022-12-12T06:01:10.294Z,1.60
2022-12-12T06:03:38.639Z,1.40
2022-12-12T06:06:06.969Z,1.60
2022-12-12T06:08:35.865Z,1.40
2022-12-12T06:11:08.304Z,2.00
2022-12-12T06:13:37.291Z,1.60
2022-12-12T06:16:11.924Z,1.70
2022-12-12T06:18:40.534Z,1.30
2022-12-12T06:21:10.744Z,1.70
2022-12-12T06:23:40.563Z,1.60
2022-12-12T06:26:12.420Z,1.80
2022-12-12T06:28:42.454Z,1.80
2022-12-12T06:31:12.606Z,1.80
2022-12-12T06:33:42.511Z,1.70
2022-12-12T06:36:13.399Z,2.00
2022-12-12T06:38:41.794Z,2.50
2022-12-12T06:41:13.536Z,2.00
2022-12-12T06:43:42.231Z,1.90
2022-12-12T06:46:15.448Z,1.80
2022-12-12T06:48:44.837Z,1.70
2022-12-12T06:51:29.285Z,2.50
2022-12-12T06:53:57.676Z,2.10
2022-12-12T06:56:27.254Z,2.30
2022-12-12T06:58:55.828Z,2.00
2022-12-12T07:01:24.697Z,2.00
2022-12-12T07:03:53.528Z,2.20
2022-12-12T07:06:23.341Z,2.20
2022-12-12T07:08:52.697Z,2.20
2022-12-12T07:11:24.651Z,1.90
2022-12-12T07:13:55.669Z,2.90
2022-12-12T07:16:24.790Z,1.80
2022-12-12T07:18:53.264Z,1.90
2022-12-12T07:21:22.163Z,1.90
2022-12-12T07:23:50.786Z,1.70
2022-12-12T07:26:22.105Z,1.60
2022-12-12T07:28:51.791Z,2.10
2022-12-12T07:31:22.793Z,1.80
2022-12-12T07:33:52.072Z,2.00
2022-12-12T07:36:20.407Z,1.80
2022-12-12T07:38:49.283Z,2.00
2022-12-12T07:41:20.468Z,1.60
2022-12-12T07:43:50.005Z,2.10
2022-12-12T07:46:22.157Z,2.00
2022-12-12T07:48:51.979Z,2.00
2022-12-12T07:51:20.973Z,1.70
2022-12-12T07:53:50.343Z,1.60
2022-12-12T07:56:20.503Z,2.10
2022-12-12T07:58:49.077Z,1.60
2022-12-12T08:01:19.434Z,2.20
2022-12-12T08:03:49.150Z,2.00
2022-12-12T08:09:05.672Z,1.80
2022-12-12T08:11:34.144Z,2.20
2022-12-12T08:14:02.607Z,2.00
2022-12-12T08:16:31.141Z,2.10
2022-12-12T08:18:59.483Z,2.20
2022-12-12T08:21:28.657Z,2.30
2022-12-12T08:23:58.431Z,2.10
2022-12-12T08:26:29.003Z,2.80
2022-12-12T08:28:57.843Z,3.00
2022-12-12T08:31:27.075Z,2.40
2022-12-12T08:33:56.293Z,2.30
2022-12-12T08:36:30.388Z,2.40
2022-12-12T08:39:03.984Z,2.70
2022-12-12T08:41:33.535Z,2.40
2022-12-12T08:44:01.948Z,2.20
2022-12-12T08:46:30.324Z,2.50
2022-12-12T08:48:58.673Z,3.00
2022-12-12T08:51:26.930Z,2.60
2022-12-12T08:53:55.360Z,3.10
2022-12-12T08:56:24.488Z,3.40
2022-12-12T08:58:53.084Z,2.60
2022-12-12T09:01:26.722Z,2.70
2022-12-12T09:03:56.481Z,2.80
2022-12-12T09:06:26.357Z,2.70
2022-12-12T09:08:56.806Z,3.30
2022-12-12T09:11:25.520Z,4.30
2022-12-12T09:13:54.331Z,3.70
2022-12-12T09:16:23.600Z,3.40
2022-12-12T09:18:52.207Z,3.50
2022-12-12T09:21:20.461Z,2.50
2022-12-12T09:23:49.005Z,2.90
2022-12-12T09:26:18.117Z,2.60
2022-12-12T09:28:46.531Z,2.40
2022-12-12T09:31:14.905Z,2.70
2022-12-12T09:33:43.501Z,2.70
2022-12-12T09:36:13.198Z,2.60
2022-12-12T09:38:41.971Z,2.70
2022-12-12T09:41:10.286Z,2.40
2022-12-12T09:43:47.871Z,2.90
2022-12-12T09:46:34.741Z,3.10
2022-12-12T09:49:41.651Z,4.00
2022-12-12T09:52:31.321Z,2.60
2022-12-12T09:55:02.664Z,2.80
2022-12-12T09:57:30.938Z,2.60
2022-12-12T10:00:12.782Z,2.90
2022-12-12T10:03:00.443Z,2.90
2022-12-12T10:05:43.031Z,2.90
2022-12-12T10:08:20.424Z,3.50
2022-12-12T10:10:54.340Z,3.20
2022-12-12T10:13:26.822Z,2.60
2022-12-12T10:16:03.684Z,2.70
2022-12-12T10:18:48.571Z,3.20
2022-12-12T10:21:28.435Z,2.90
2022-12-12T10:24:09.922Z,2.90
2022-12-12T10:26:40.032Z,2.70
2022-12-12T10:29:22.092Z,2.70
2022-12-12T10:32:12.111Z,3.00
2022-12-12T10:34:46.401Z,3.80
2022-12-12T10:37:43.461Z,4.90
2022-12-12T10:40:34.376Z,4.20
2022-12-12T10:43:14.999Z,4.30
2022-12-12T10:46:08.666Z,3.10
2022-12-12T10:48:37.216Z,3.60
2022-12-12T10:51:12.008Z,3.10
2022-12-12T10:53:42.366Z,3.50
2022-12-12T10:56:29.475Z,3.00
2022-12-12T10:58:59.870Z,3.30
2022-12-12T11:02:08.522Z,3.10
2022-12-12T11:04:31.801Z,2.80
2022-12-12T11:07:00.571Z,2.80
2022-12-12T11:09:29.318Z,2.80
2022-12-12T11:11:59.694Z,3.00
2022-12-12T11:14:38.055Z,3.00
2022-12-12T11:17:28.227Z,2.80
2022-12-12T11:19:59.034Z,2.80
2022-12-12T11:22:30.640Z,3.00
2022-12-12T11:24:59.455Z,3.30
2022-12-12T11:27:33.229Z,3.00
2022-12-12T11:30:30.552Z,2.80
2022-12-12T11:32:59.426Z,3.00
2022-12-12T11:35:41.161Z,2.40
2022-12-12T11:38:22.645Z,2.60
2022-12-12T11:41:06.338Z,2.20
2022-12-12T11:44:00.529Z,2.30
2022-12-12T11:46:33.645Z,2.40
2022-12-12T11:49:05.634Z,2.40
2022-12-12T11:51:45.766Z,2.30
2022-12-12T11:54:27.472Z,2.30
2022-12-12T11:57:06.933Z,2.40
2022-12-12T12:00:11.864Z,3.30
2022-12-12T12:03:09.072Z,2.40
2022-12-12T12:05:43.438Z,2.80
2022-12-12T12:08:40.796Z,2.30
2022-12-12T12:11:23.887Z,2.60
2022-12-12T12:14:04.313Z,2.60
2022-12-12T12:16:48.424Z,3.00
2022-12-12T12:19:30.457Z,3.10
2022-12-12T12:22:07.581Z,3.20
2022-12-12T12:24:38.925Z,3.00
2022-12-12T12:27:18.159Z,3.60
2022-12-12T12:30:20.873Z,3.50
2022-12-12T12:33:12.323Z,3.60
2022-12-12T12:36:08.926Z,4.70
2022-12-12T12:39:01.187Z,4.20
2022-12-12T12:41:48.602Z,4.00
2022-12-12T12:44:30.298Z,3.40
2022-12-12T12:47:01.631Z,3.20
2022-12-12T12:49:40.111Z,3.30
2022-12-12T12:52:11.864Z,3.30
2022-12-12T12:54:42.372Z,3.00
2022-12-12T12:57:13.178Z,3.10
2022-12-12T12:59:45.711Z,2.70
2022-12-12T13:02:34.686Z,3.30
2022-12-12T13:05:21.271Z,3.40
2022-12-12T13:08:04.703Z,3.10
2022-12-12T13:10:35.213Z,2.80
2022-12-12T13:13:18.403Z,3.70
2022-12-12T13:15:54.428Z,3.20
2022-12-12T13:18:22.834Z,3.80
2022-12-12T13:20:57.210Z,4.20
2022-12-12T13:24:01.726Z,3.70
2022-12-12T13:26:55.970Z,4.10
2022-12-12T13:29:49.445Z,5.10
2022-12-12T13:33:15.235Z,5.40
2022-12-12T13:35:47.494Z,4.20
2022-12-12T13:38:23.180Z,4.80
2022-12-12T13:40:57.972Z,3.80
2022-12-12T13:43:38.425Z,4.40
2022-12-12T13:46:21.846Z,4.60
2022-12-12T13:49:09.158Z,5.20
2022-12-12T13:51:40.866Z,4.90
2022-12-12T13:54:13.586Z,5.50
2022-12-12T13:57:04.978Z,4.00
2022-12-12T14:02:30.983Z,4.50
2022-12-12T14:05:10.462Z,4.80
2022-12-12T14:07:39.599Z,4.90
2022-12-12T14:10:39.354Z,4.40
2022-12-12T14:13:23.175Z,4.80
2022-12-12T14:26:28.877Z,3.90
2022-12-12T14:29:15.937Z,5.50
2022-12-12T14:31:56.525Z,4.10
2022-12-12T14:34:37.058Z,4.10
2022-12-12T14:37:40.885Z,3.60
2022-12-12T14:40:15.947Z,3.90
2022-12-12T14:43:29.095Z,3.90
2022-12-12T14:45:59.889Z,4.00
2022-12-12T14:48:35.007Z,4.30
2022-12-12T14:51:29.293Z,3.90
2022-12-12T14:54:00.453Z,4.10
2022-12-12T14:56:36.820Z,3.70
2022-12-12T14:59:09.342Z,3.90
2022-12-12T15:01:47.163Z,3.50
2022-12-12T15:04:22.948Z,3.70
2022-12-12T15:07:02.253Z,3.80
2022-12-12T15:09:39.049Z,3.50
2022-12-12T15:12:10.657Z,3.30
2022-12-12T15:14:52.041Z,3.70
2022-12-12T15:17:31.256Z,3.70
2022-12-12T15:20:15.093Z,3.80
2022-12-12T15:22:58.882Z,4.00
2022-12-12T15:25:34.212Z,4.20
2022-12-12T15:28:03.150Z,4.50
2022-12-12T15:30:45.741Z,4.30
2022-12-12T15:33:25.890Z,4.50
2022-12-12T15:36:02.899Z,3.90
2022-12-12T15:38:33.175Z,3.90
2022-12-12T15:41:08.163Z,4.10
2022-12-12T15:43:43.292Z,4.00
2022-12-12T15:46:15.787Z,5.00
2022-12-12T15:48:49.727Z,3.60
2022-12-12T15:51:24.670Z,3.70
2022-12-12T15:53:55.577Z,3.40
2022-12-12T15:56:28.983Z,3.50
2022-12-12T15:59:25.775Z,3.50
2022-12-12T16:01:54.133Z,3.90
2022-12-12T16:04:26.211Z,3.70
2022-12-12T16:06:54.473Z,3.60
2022-12-12T16:09:27.012Z,4.40
2022-12-12T16:11:56.721Z,3.60
2022-12-12T16:14:25.212Z,5.00
2022-12-12T16:16:56.581Z,3.80
2022-12-12T16:19:46.901Z,4.30
2022-12-12T16:22:21.541Z,3.40
2022-12-12T16:25:09.312Z,3.50
2022-12-12T16:27:37.689Z,3.70
2022-12-12T16:30:06.564Z,3.60
2022-12-12T16:32:34.878Z,3.70
2022-12-12T16:35:03.881Z,3.10
2022-12-12T16:37:33.313Z,3.70
2022-12-12T16:40:01.693Z,3.60
2022-12-12T16:42:30.542Z,3.00
2022-12-12T16:44:59.120Z,3.30
2022-12-12T16:47:30.486Z,3.30
2022-12-12T16:49:58.798Z,3.20
2022-12-12T16:52:27.279Z,3.20
2022-12-12T16:54:55.626Z,3.20
2022-12-12T16:57:24.951Z,2.90
2022-12-12T16:59:53.412Z,3.20
2022-12-12T17:02:23.923Z,3.50
2022-12-12T17:04:53.343Z,2.70
2022-12-12T17:07:21.707Z,3.00
2022-12-12T17:09:49.941Z,3.20
2022-12-12T17:12:19.335Z,2.50
2022-12-12T17:14:47.621Z,2.30
2022-12-12T17:17:15.869Z,2.90
2022-12-12T17:19:44.201Z,2.90
2022-12-12T17:22:12.680Z,2.90
2022-12-12T17:24:41.036Z,4.00
2022-12-12T17:27:09.352Z,2.70
2022-12-12T17:29:37.714Z,2.80
2022-12-12T17:32:06.040Z,2.60
2022-12-12T17:34:34.466Z,2.70
2022-12-12T17:37:02.829Z,2.90
2022-12-12T17:39:31.345Z,2.70
2022-12-12T17:41:59.619Z,2.80
2022-12-12T17:44:27.996Z,3.10
2022-12-12T17:46:56.282Z,3.80
2022-12-12T17:49:24.794Z,3.00
2022-12-12T17:51:53.339Z,3.00
2022-12-12T17:54:21.683Z,3.70
2022-12-12T17:56:50.306Z,3.50
2022-12-12T17:59:18.658Z,3.20
2022-12-12T18:01:53.140Z,3.30
2022-12-12T18:04:27.798Z,3.50
2022-12-12T18:06:56.553Z,3.50
2022-12-12T18:09:26.104Z,3.50
2022-12-12T18:11:54.688Z,3.70
2022-12-12T18:14:23.109Z,3.60
2022-12-12T18:16:53.237Z,3.30
2022-12-12T18:19:23.259Z,3.50
2022-12-12T18:22:00.984Z,3.90
2022-12-12T18:24:30.471Z,4.20
2022-12-12T18:27:00.997Z,4.10
2022-12-12T18:29:30.274Z,4.00
2022-12-12T18:31:58.691Z,4.50
2022-12-12T18:34:27.320Z,3.80
2022-12-12T18:36:55.657Z,3.30
2022-12-12T18:39:23.994Z,3.40
2022-12-12T18:41:52.438Z,3.20
2022-12-12T18:44:21.157Z,4.40
2022-12-12T18:46:51.201Z,4.40
2022-12-12T18:49:19.701Z,3.90
2022-12-12T18:51:48.073Z,4.30
2022-12-12T18:54:16.960Z,4.70
2022-12-12T18:56:46.777Z,3.90
2022-12-12T18:59:16.002Z,4.10
2022-12-12T19:01:45.068Z,4.90
2022-12-12T19:04:20.941Z,3.80
2022-12-12T19:06:51.698Z,3.90
2022-12-12T19:09:20.809Z,3.70
2022-12-12T19:11:54.257Z,3.50
2022-12-12T19:14:35.682Z,3.60
2022-12-12T19:17:09.023Z,3.40
2022-12-12T19:19:37.451Z,3.10
2022-12-12T19:22:24.859Z,3.20
2022-12-12T19:24:54.132Z,3.70
2022-12-12T19:27:22.405Z,3.60
2022-12-12T19:29:50.661Z,3.10
2022-12-12T19:32:19.348Z,3.50
2022-12-12T19:34:47.576Z,3.60
2022-12-12T19:37:16.092Z,3.50
2022-12-12T19:39:44.464Z,3.30
2022-12-12T19:42:12.740Z,3.40
2022-12-12T19:44:43.505Z,3.20
2022-12-12T19:47:13.549Z,3.30
2022-12-12T19:49:42.325Z,3.30
2022-12-12T19:52:14.031Z,3.90
2022-12-12T19:57:11.214Z,3.40
2022-12-12T19:59:39.765Z,4.30
2022-12-12T20:02:10.265Z,3.60
2022-12-12T20:04:39.487Z,4.00
2022-12-12T20:07:07.984Z,3.00
2022-12-12T20:09:36.697Z,3.10
2022-12-12T20:12:05.595Z,3.30
2022-12-12T20:14:35.371Z,3.30
2022-12-12T20:17:04.763Z,2.70
2022-12-12T20:19:33.141Z,3.00
2022-12-12T20:22:02.811Z,3.00
2022-12-12T20:24:33.563Z,3.20
2022-12-12T20:27:05.732Z,2.60
2022-12-12T20:29:34.228Z,3.40
2022-12-12T20:32:03.880Z,2.90
2022-12-12T20:34:32.088Z,3.10
2022-12-12T20:37:00.539Z,2.80
2022-12-12T20:39:28.824Z,3.10
2022-12-12T20:41:57.734Z,3.50
2022-12-12T20:44:29.186Z,5.00
2022-12-12T20:46:59.857Z,3.20
2022-12-12T20:49:29.700Z,2.90
2022-12-12T20:51:59.355Z,2.70
2022-12-12T20:54:29.063Z,2.80
2022-12-12T20:56:59.031Z,2.60
2022-12-12T20:59:27.557Z,2.60
2022-12-12T21:01:55.985Z,2.90
2022-12-12T21:04:24.869Z,2.50
2022-12-12T21:06:53.197Z,3.00
2022-12-12T21:09:26.215Z,2.20
2022-12-12T21:11:58.339Z,2.20
2022-12-12T21:14:30.742Z,2.40
2022-12-12T21:16:59.389Z,2.30
2022-12-12T21:19:27.689Z,2.70
2022-12-12T21:21:56.026Z,2.60
2022-12-12T21:24:24.396Z,2.80
2022-12-12T21:26:52.777Z,2.30
2022-12-12T21:29:21.194Z,2.80
2022-12-12T21:31:52.668Z,2.80
2022-12-12T21:34:22.888Z,2.70
2022-12-12T21:36:53.765Z,2.30
2022-12-12T21:39:27.401Z,2.50
2022-12-12T21:41:56.490Z,2.30
2022-12-12T21:44:25.398Z,2.30
2022-12-12T21:46:53.740Z,2.20
2022-12-12T21:49:28.390Z,2.20
2022-12-12T21:52:04.194Z,2.10
2022-12-12T21:54:32.947Z,2.30
2022-12-12T21:57:02.107Z,2.00
2022-12-12T21:59:30.792Z,2.40
2022-12-12T22:02:00.932Z,2.20
2022-12-12T22:04:29.967Z,2.10
2022-12-12T22:06:58.876Z,2.20
2022-12-12T22:09:27.415Z,2.20
2022-12-12T22:12:03.926Z,2.30
2022-12-12T22:14:34.922Z,2.30
2022-12-12T22:17:05.121Z,2.40
2022-12-12T22:19:33.361Z,2.00
2022-12-12T22:22:01.732Z,2.10
2022-12-12T22:24:30.127Z,2.10
2022-12-12T22:26:58.565Z,1.80
2022-12-12T22:29:27.090Z,2.20
2022-12-12T22:31:55.560Z,2.30
2022-12-12T22:34:25.040Z,1.80
2022-12-12T22:36:54.067Z,2.60
2022-12-12T22:39:25.425Z,2.30
2022-12-12T22:41:56.615Z,2.20
2022-12-12T22:44:25.775Z,2.00
2022-12-12T22:46:55.922Z,2.60
2022-12-12T22:49:26.846Z,2.40
2022-12-12T22:51:57.618Z,1.80
2022-12-12T22:54:27.349Z,2.00
2022-12-12T22:56:55.770Z,2.10
2022-12-12T22:59:25.691Z,1.70
2022-12-12T23:01:54.269Z,2.00
2022-12-12T23:04:23.180Z,1.80
2022-12-12T23:06:51.477Z,1.80
2022-12-12T23:09:26.304Z,1.80
2022-12-12T23:11:55.363Z,1.90
2022-12-12T23:14:26.394Z,2.00
2022-12-12T23:16:55.522Z,1.90
2022-12-12T23:19:26.034Z,1.90
2022-12-12T23:21:54.457Z,1.70
2022-12-12T23:24:23.131Z,1.90
2022-12-12T23:26:52.043Z,2.00
2022-12-12T23:29:21.091Z,1.70
2022-12-12T23:31:50.399Z,2.10
2022-12-12T23:34:23.343Z,2.10
2022-12-12T23:36:54.233Z,2.30
2022-12-12T23:39:24.095Z,2.00
2022-12-12T23:41:53.501Z,2.20
2022-12-12T23:44:23.451Z,1.70
2022-12-12T23:46:52.219Z,1.80
2022-12-12T23:49:23.579Z,2.00
2022-12-12T23:51:56.428Z,1.80
2022-12-12T23:54:33.642Z,2.10
2022-12-12T23:57:02.834Z,1.80
2022-12-12T23:59:31.104Z,1.90
